ADDS METAR Data INFO
IDs: Format: Raw Decoded Include TAF

Data at: 0305 UTC 21 Oct 2017

KFYV 210253Z 15012G17KT 10SM CLR 19/14 A2998 RMK AO2 SLP144 T01890144 56002
KFYV 210153Z 15007KT 10SM CLR 19/14 A2999 RMK AO2 SLP148 T01890144
KFYV 210053Z 14008G18KT 10SM CLR 19/15 A2998 RMK AO2 SLP147 T01890150
KFYV 202353Z 14012KT 10SM CLR 19/16 A2999 RMK AO2 SLP150 T01940156 10228 20194 56016
KFYV 202253Z 15012G18KT 10SM CLR 21/16 A3001 RMK AO2 SLP156 T02060156
KFYV 202153Z 19012KT 10SM CLR 22/16 A3002 RMK AO2 SLP157 T02220156
KFYV 202053Z 15012G20KT 10SM CLR 22/14 A3004 RMK AO2 SLP164 T02220144 56028
KFYV 201953Z 15007KT 10SM SCT070 OVC110 21/16 A3005 RMK AO2 SLP169 T02110156
KFYV 201853Z 16007KT 10SM FEW110 20/14 A3009 RMK AO2 SLP184 T02000144
KFYV 201753Z 17006KT 10SM BKN085 20/13 A3012 RMK AO2 SLP196 T02000128 10217 20083 56016
KFYV 201653Z 17012KT 10SM FEW110 21/12 A3014 RMK AO2 SLP201 T02060122
KFYV 201553Z 17009KT 10SM SCT100 SCT110 19/13 A3015 RMK AO2 SLP204 T01940128
KFYV 201453Z 20005KT 10SM CLR 18/14 A3017 RMK AO2 SLP213 T01830139 53004
KFYV 201353Z 00000KT 10SM CLR 13/12 A3018 RMK AO2 SLP216 T01280122
KFYV 201253Z 00000KT 8SM CLR 10/10 A3014 RMK AO2 SLP205 T01000100
KFYV 201153Z 00000KT 9SM CLR 09/09 A3016 RMK AO2 SLP210 T00940094 10150 20083 50001
KFYV 201053Z 25003KT 10SM CLR 09/09 A3017 RMK AO2 SLP211 T00890089
KFYV 200953Z AUTO 32004KT 10SM CLR 11/10 A3016 RMK AO2 SLP204 T01060100
KFYV 200853Z AUTO 34003KT 10SM CLR 12/11 A3016 RMK AO2 SLP203 T01220111 50002
KFYV 200753Z AUTO 19004KT 10SM CLR 14/12 A3016 RMK AO2 SLP205 T01440117
KFYV 200653Z AUTO 00000KT 10SM CLR 12/11 A3016 RMK AO2 SLP204 T01220106
KFYV 200553Z AUTO VRB05KT 10SM CLR 08/08 A3015 RMK AO2 SLP204 T00780078 10161 20072 402610061 51001
KFYV 200453Z AUTO VRB03KT 8SM CLR 08/07 A3015 RMK AO2 SLP205 T00780072
KFYV 200353Z AUTO 00000KT 8SM CLR 08/08 A3016 RMK AO2 SLP206 T00830083
KFYV 200253Z 00000KT 9SM CLR 09/09 A3015 RMK AO2 SLP207 T00940094 51000
KFYV 200153Z 00000KT 10SM CLR 11/10 A3015 RMK AO2 SLP207 T01060100
KFYV 200053Z 00000KT 10SM CLR 13/12 A3015 RMK AO2 SLP210 T01280117
KFYV 192353Z 00000KT 10SM CLR 16/11 A3015 RMK AO2 SLP206 T01610111 10261 20161 55000
KFYV 192253Z 17006KT 10SM CLR 21/10 A3014 RMK AO2 SLP203 T02110100
KFYV 192153Z 19009KT 10SM CLR 25/11 A3015 RMK AO2 SLP201 T02500106
KFYV 192053Z 20007KT 10SM CLR 26/11 A3015 RMK AO2 SLP201 T02560111 56019
KFYV 191953Z 19005KT 10SM CLR 24/11 A3016 RMK AO2 SLP206 T02440106
KFYV 191853Z 21004KT 10SM CLR 24/12 A3018 RMK AO2 SLP211 T02440117
KFYV 191753Z 24007KT 10SM CLR 23/11 A3020 RMK AO2 SLP218 T02330106 10233 20072 58008
KFYV 191653Z 24007KT 10SM CLR 22/12 A3022 RMK AO2 SLP227 T02220122
KFYV 191553Z 21009G16KT 10SM CLR 21/12 A3023 RMK AO2 SLP231 T02060122